Time;durP1;ratioP1;P1;durP2;ratioP2;P2;SDS_P1;SDS_P2;PMS_P1;PMS_P2;Temp;Humidity;BMP_temperature;BMP_pressure;BME280_temperature;BME280_humidity;BME280_pressure;Samples;Min_cycle;Max_cycle;Signal;HPM_P1;HPM_P2
2022/11/19 00:02:01;;;;;;;0.93;0.83;;;7.50;99.90;;;;;;4885782;29;20451;-78
2022/11/19 00:04:30;;;;;;;0.50;0.20;;;7.40;99.90;;;;;;4885347;29;21010;-78
2022/11/19 00:06:58;;;;;;;0.93;0.30;;;7.40;99.90;;;;;;4886401;29;20501;-78
2022/11/19 00:09:26;;;;;;;0.50;0.10;;;7.30;99.90;;;;;;4883258;29;21029;-77
2022/11/19 00:14:40;;;;;;;0.50;0.10;;;7.10;99.90;;;;;;4883717;29;20474;-78
2022/11/19 00:17:07;;;;;;;0.50;0.10;;;7.00;99.90;;;;;;4883838;29;20479;-77
2022/11/19 00:19:37;;;;;;;0.50;0.17;;;;;;;;;;4884210;29;20470;-77
2022/11/19 00:22:05;;;;;;;0.50;0.20;;;6.90;99.90;;;;;;4888414;29;20958;-78
2022/11/19 00:24:33;;;;;;;2.00;1.23;;;6.90;99.90;;;;;;4884926;29;20561;-78
2022/11/19 00:27:01;;;;;;;2.50;1.90;;;6.80;99.90;;;;;;4885297;29;20866;-78
2022/11/19 00:29:29;;;;;;;0.50;0.10;;;6.80;99.90;;;;;;4886008;29;20458;-79
2022/11/19 00:31:57;;;;;;;0.60;0.30;;;6.80;99.90;;;;;;4887064;29;20446;-79
2022/11/19 00:34:25;;;;;;;0.50;0.10;;;6.80;99.90;;;;;;4885890;29;20481;-79
2022/11/19 00:36:54;;;;;;;0.50;0.20;;;6.80;99.90;;;;;;4886330;29;20920;-79
2022/11/19 00:39:22;;;;;;;1.57;0.40;;;6.70;99.90;;;;;;4885925;29;20465;-78
2022/11/19 00:41:50;;;;;;;0.50;0.10;;;6.70;99.90;;;;;;4883772;29;20466;-79
2022/11/19 00:44:17;;;;;;;0.50;0.10;;;6.70;99.90;;;;;;4884418;29;20494;-78
2022/11/19 00:46:45;;;;;;;0.50;0.10;;;6.70;99.90;;;;;;4898396;29;20441;-78
2022/11/19 00:49:13;;;;;;;0.50;0.10;;;6.70;99.90;;;;;;4903809;29;20460;-77
2022/11/19 00:51:41;;;;;;;0.50;0.20;;;6.80;99.90;;;;;;4906079;29;21020;-79
2022/11/19 00:54:10;;;;;;;0.50;0.10;;;6.80;99.90;;;;;;4904661;29;20462;-79
2022/11/19 00:56:38;;;;;;;0.50;0.10;;;6.90;99.90;;;;;;4903993;29;20449;-78
2022/11/19 00:59:06;;;;;;;0.50;0.10;;;6.90;99.90;;;;;;4915425;23;20504;-72
2022/11/19 05:01:08;;;;;;;0.80;0.60;;;4.50;99.90;;;;;;6117777;22;1225454;-72
2022/11/19 05:03:36;;;;;;;1.00;0.40;;;4.50;99.90;;;;;;6214152;23;20263;-73
2022/11/19 05:06:04;;;;;;;0.50;0.20;;;4.50;99.90;;;;;;6214710;23;20407;-73
2022/11/19 05:08:32;;;;;;;0.97;0.80;;;4.50;99.90;;;;;;6214600;23;20522;-71
2022/11/19 05:11:00;;;;;;;3.63;1.30;;;4.30;99.90;;;;;;6214235;23;20435;-71
2022/11/19 05:13:28;;;;;;;0.60;0.40;;;4.30;99.90;;;;;;6214538;23;20399;-71
2022/11/19 05:15:55;;;;;;;1.20;0.90;;;4.20;99.90;;;;;;6214580;23;20411;-72
2022/11/19 05:18:25;;;;;;;0.50;0.20;;;4.20;99.90;;;;;;6214771;23;20399;-72
2022/11/19 05:20:53;;;;;;;2.10;2.00;;;4.10;99.90;;;;;;6214424;23;20485;-72
2022/11/19 05:23:20;;;;;;;0.67;0.40;;;4.10;99.90;;;;;;6213874;23;20777;-72
2022/11/19 05:25:48;;;;;;;12.80;11.97;;;4.10;99.90;;;;;;6214743;23;20406;-70
2022/11/19 05:28:16;;;;;;;0.50;0.10;;;;;;;;;;6214093;23;20756;-71
2022/11/19 05:30:44;;;;;;;0.50;0.10;;;4.20;99.90;;;;;;6214371;23;20495;-72
2022/11/19 05:33:12;;;;;;;1.57;0.20;;;;;;;;;;6214576;22;20455;-78
2022/11/19 05:35:41;;;;;;;1.23;0.30;;;4.30;99.90;;;;;;6218750;23;20403;-79
2022/11/19 05:38:09;;;;;;;0.60;0.30;;;4.30;99.90;;;;;;6221774;23;20401;-77
2022/11/19 05:40:37;;;;;;;0.50;0.10;;;4.30;99.90;;;;;;6235809;23;20391;-80
2022/11/19 05:43:05;;;;;;;0.60;0.30;;;4.30;99.90;;;;;;6222343;23;20488;-78
2022/11/19 05:45:33;;;;;;;0.60;0.47;;;4.30;99.90;;;;;;6221877;23;20403;-78
2022/11/19 05:48:01;;;;;;;0.93;0.83;;;4.20;99.90;;;;;;6221246;23;20728;-77
2022/11/19 05:50:29;;;;;;;0.50;0.30;;;4.20;99.90;;;;;;6221328;23;20450;-77
2022/11/19 05:52:59;;;;;;;0.50;0.17;;;4.10;99.90;;;;;;6223695;23;20435;-78
2022/11/19 05:55:26;;;;;;;0.50;0.10;;;4.20;99.90;;;;;;6221372;23;20895;-78
2022/11/19 05:57:54;;;;;;;3.50;3.30;;;4.20;99.90;;;;;;6221578;23;20467;-78
2022/11/19 06:00:22;;;;;;;0.50;0.10;;;4.20;99.90;;;;;;6219284;23;20419;-80
2022/11/19 06:02:50;;;;;;;0.50;0.10;;;4.30;99.90;;;;;;6218675;23;20423;-80
2022/11/19 06:05:18;;;;;;;0.60;0.30;;;4.30;99.90;;;;;;6217884;23;20490;-78
2022/11/19 06:07:46;;;;;;;0.93;0.93;;;4.30;99.90;;;;;;6219381;23;20465;-78
2022/11/19 06:10:15;;;;;;;0.77;0.77;;;4.30;99.90;;;;;;6220007;23;20493;-79
2022/11/19 06:12:43;;;;;;;0.50;0.20;;;4.20;99.90;;;;;;6221563;23;20770;-79
2022/11/19 06:15:13;;;;;;;0.97;0.40;;;4.20;99.90;;;;;;6227653;23;20434;-78
2022/11/19 06:17:42;;;;;;;5.83;5.53;;;4.10;99.90;;;;;;6229296;23;20458;-76
2022/11/19 06:20:10;;;;;;;0.50;0.10;;;4.10;99.90;;;;;;6226103;23;20399;-78
2022/11/19 06:22:39;;;;;;;0.50;0.17;;;4.00;99.90;;;;;;6231557;23;20931;-78
2022/11/19 06:25:08;;;;;;;9.40;0.87;;;3.90;99.90;;;;;;6227157;23;20768;-78
2022/11/19 06:27:37;;;;;;;1.47;0.60;;;3.90;99.90;;;;;;6230392;23;20399;-77
2022/11/19 06:30:06;;;;;;;1.10;1.10;;;3.90;99.90;;;;;;6221685;23;20508;-78
2022/11/19 06:32:34;;;;;;;0.50;0.10;;;3.90;99.90;;;;;;6219048;23;20434;-78
2022/11/19 06:35:01;;;;;;;0.50;0.20;;;3.90;99.90;;;;;;6219231;23;20549;-79
2022/11/19 06:37:29;;;;;;;0.60;0.30;;;3.90;99.90;;;;;;6219223;23;20407;-79
2022/11/19 06:39:57;;;;;;;1.60;1.50;;;3.90;99.90;;;;;;6219829;23;20896;-78
2022/11/19 06:45:19;;;;;;;1.17;0.87;;;3.80;99.90;;;;;;6220923;23;20502;-78
2022/11/19 06:47:48;;;;;;;0.50;0.10;;;3.80;99.90;;;;;;6226687;23;20403;-79
2022/11/19 06:50:16;;;;;;;0.50;0.20;;;3.80;99.90;;;;;;6228186;23;20500;-78
2022/11/19 06:52:47;;;;;;;0.60;0.40;;;3.80;99.90;;;;;;6226246;23;20427;-79
2022/11/19 06:55:15;;;;;;;2.50;2.30;;;3.80;99.90;;;;;;6224948;23;20407;-78
2022/11/19 06:57:43;;;;;;;0.60;0.60;;;3.90;99.90;;;;;;6219814;23;20406;-80
2022/11/19 07:00:12;;;;;;;0.77;0.50;;;3.80;99.90;;;;;;6218535;23;20403;-79
2022/11/19 07:02:41;;;;;;;0.50;0.20;;;3.80;99.90;;;;;;6220799;23;20458;-78
2022/11/19 07:05:09;;;;;;;0.50;0.30;;;3.80;99.90;;;;;;6220886;23;20453;-79
2022/11/19 07:07:37;;;;;;;0.50;0.10;;;3.70;99.90;;;;;;6224626;23;20406;-78
2022/11/19 07:10:06;;;;;;;4.90;4.43;;;3.80;99.90;;;;;;6222618;23;20449;-78
2022/11/19 07:12:34;;;;;;;0.50;0.30;;;3.80;99.90;;;;;;6221585;23;20511;-79
2022/11/19 07:15:03;;;;;;;2.40;1.07;;;3.70;99.90;;;;;;6222822;23;20914;-77
2022/11/19 07:17:31;;;;;;;1.00;0.33;;;3.70;99.90;;;;;;6225999;23;20411;-79
2022/11/19 07:20:01;;;;;;;2.80;1.23;;;3.60;99.90;;;;;;6226297;23;20398;-79
2022/11/19 07:22:29;;;;;;;0.50;0.20;;;3.60;99.90;;;;;;6224118;23;20448;-78
2022/11/19 07:24:56;;;;;;;0.70;0.40;;;3.60;99.90;;;;;;6226803;23;20403;-79
2022/11/19 07:27:24;;;;;;;1.20;0.30;;;3.60;99.90;;;;;;6221036;23;20410;-78
2022/11/19 07:29:52;;;;;;;0.50;0.20;;;3.60;99.90;;;;;;6220532;23;20527;-78
2022/11/19 07:32:20;;;;;;;0.50;0.10;;;3.80;99.90;;;;;;6220233;23;20542;-78
2022/11/19 07:34:47;;;;;;;0.50;0.20;;;3.70;99.90;;;;;;6223062;23;20418;-78
2022/11/19 07:37:17;;;;;;;0.50;0.10;;;3.70;99.90;;;;;;6227477;23;20422;-79
2022/11/19 07:39:45;;;;;;;0.93;0.93;;;3.70;99.90;;;;;;6225625;23;20429;-77
2022/11/19 07:44:59;;;;;;;0.50;0.10;;;3.70;99.90;;;;;;6220931;23;20422;-79
2022/11/19 07:47:26;;;;;;;0.50;0.10;;;3.70;99.90;;;;;;6220335;23;20400;-78
2022/11/19 07:49:54;;;;;;;3.27;3.07;;;3.70;99.90;;;;;;6222322;23;20414;-78
2022/11/19 07:52:23;;;;;;;3.23;3.13;;;3.70;99.90;;;;;;6230500;23;20419;-76
2022/11/19 07:54:51;;;;;;;0.50;0.10;;;3.70;99.90;;;;;;6229606;23;20410;-77
2022/11/19 07:57:19;;;;;;;0.50;0.30;;;3.80;99.90;;;;;;6222402;23;20399;-78
2022/11/19 07:59:50;;;;;;;0.50;0.10;;;3.80;99.90;;;;;;6221182;23;20391;-77
2022/11/19 08:02:18;;;;;;;1.10;0.20;;;3.80;99.90;;;;;;6233089;23;20481;-77
2022/11/19 08:04:45;;;;;;;0.50;0.10;;;3.80;99.90;;;;;;6220382;23;20407;-77
2022/11/19 08:07:13;;;;;;;0.50;0.20;;;3.80;99.90;;;;;;6220439;23;20411;-79
2022/11/19 08:09:42;;;;;;;0.50;0.20;;;3.80;99.90;;;;;;6220810;23;20396;-78
2022/11/19 08:12:10;;;;;;;0.50;0.10;;;3.80;99.90;;;;;;6220911;23;20443;-78
2022/11/19 08:14:38;;;;;;;3.23;2.53;;;3.70;99.90;;;;;;6221586;23;20930;-79
2022/11/19 08:19:51;;;;;;;1.70;1.60;;;3.70;99.90;;;;;;6222019;23;20899;-79
2022/11/19 08:22:19;;;;;;;0.60;0.50;;;3.70;99.90;;;;;;6223583;23;20473;-77
2022/11/19 08:24:48;;;;;;;1.70;0.83;;;3.70;99.90;;;;;;6220304;23;20403;-78
2022/11/19 08:27:17;;;;;;;3.27;3.17;;;3.70;99.90;;;;;;6220839;23;20430;-79
2022/11/19 08:29:45;;;;;;;0.50;0.17;;;3.80;99.90;;;;;;6218762;23;20465;-78
2022/11/19 08:32:13;;;;;;;1.63;0.83;;;3.70;99.90;;;;;;6220175;23;20954;-79
2022/11/19 08:34:40;;;;;;;0.50;0.10;;;3.70;99.90;;;;;;6223083;23;20407;-78
2022/11/19 08:37:10;;;;;;;0.50;0.10;;;3.70;99.90;;;;;;6228139;23;20396;-78
2022/11/19 08:39:37;;;;;;;0.50;0.10;;;3.80;99.90;;;;;;6229454;23;20395;-77
2022/11/19 08:44:52;;;;;;;0.60;0.60;;;3.80;99.90;;;;;;6206252;23;20697;-79
2022/11/19 08:47:19;;;;;;;2.40;1.80;;;3.80;99.90;;;;;;6222344;23;20896;-79
2022/11/19 08:49:47;;;;;;;0.50;0.10;;;3.70;99.90;;;;;;6222532;23;20391;-78
2022/11/19 08:52:15;;;;;;;0.50;0.20;;;3.80;99.90;;;;;;6219521;23;21035;-78
2022/11/19 08:54:55;;;;;;;0.50;0.10;;;3.90;99.90;;;;;;6220727;23;20914;-79
2022/11/19 08:57:25;;;;;;;0.60;0.40;;;0.90;99.90;;;;;;6222355;23;20715;-79
2022/11/19 08:59:52;;;;;;;0.50;0.13;;;4.00;99.90;;;;;;6221292;23;20415;-80
2022/11/19 09:02:20;;;;;;;0.50;0.10;;;4.00;99.90;;;;;;6219994;23;20427;-78
2022/11/19 09:04:48;;;;;;;0.50;0.20;;;3.90;99.90;;;;;;6218675;23;20927;-79
2022/11/19 09:07:16;;;;;;;0.50;0.10;;;3.90;99.90;;;;;;6219323;23;20781;-78
2022/11/19 09:09:44;;;;;;;1.70;1.20;;;3.90;99.90;;;;;;6219257;23;20737;-77
2022/11/19 09:12:12;;;;;;;0.70;0.50;;;3.90;99.90;;;;;;6218946;23;20451;-78
2022/11/19 09:14:41;;;;;;;0.80;0.70;;;3.90;99.90;;;;;;6219522;23;20849;-78
2022/11/19 09:17:09;;;;;;;0.70;0.63;;;4.00;99.90;;;;;;6220113;23;20404;-76
2022/11/19 09:19:36;;;;;;;0.70;0.40;;;3.90;99.90;;;;;;6218694;23;20403;-77
2022/11/19 09:22:04;;;;;;;2.00;1.90;;;3.90;99.90;;;;;;6218544;23;20479;-76
2022/11/19 09:24:32;;;;;;;0.50;0.10;;;3.90;99.90;;;;;;6220792;23;20414;-80
2022/11/19 09:27:01;;;;;;;0.50;0.10;;;3.80;99.90;;;;;;6218712;23;20407;-78
2022/11/19 09:29:29;;;;;;;0.50;0.20;;;3.90;99.90;;;;;;6223741;23;20962;-78
2022/11/19 09:31:58;;;;;;;0.50;0.10;;;3.90;99.90;;;;;;6222333;23;20451;-79
2022/11/19 09:34:26;;;;;;;0.50;0.20;;;3.90;99.90;;;;;;6221425;23;20438;-78
2022/11/19 09:36:54;;;;;;;0.50;0.10;;;3.90;99.90;;;;;;6215963;23;20839;-77
2022/11/19 09:39:22;;;;;;;0.70;0.53;;;3.90;99.90;;;;;;6214778;23;20415;-77
2022/11/19 09:41:55;;;;;;;0.50;0.10;;;3.80;99.90;;;;;;6214805;23;20422;-77
2022/11/19 09:44:41;;;;;;;0.50;0.10;;;3.80;99.90;;;;;;6215560;23;20796;-80
2022/11/19 09:47:25;;;;;;;0.50;0.10;;;3.80;99.90;;;;;;6215992;23;20399;-78
2022/11/19 09:50:04;;;;;;;0.60;0.30;;;3.80;99.90;;;;;;6215853;23;20414;-77
2022/11/19 09:52:42;;;;;;;0.80;0.77;;;3.80;99.90;;;;;;6227248;23;20443;-77
2022/11/19 09:55:18;;;;;;;0.60;0.33;;;3.80;99.90;;;;;;6218551;23;20402;-76
2022/11/19 09:57:50;;;;;;;0.50;0.10;;;3.80;99.90;;;;;;6211952;23;20403;-76
2022/11/19 10:00:21;;;;;;;0.63;0.57;;;3.80;99.90;;;;;;6215188;23;20461;-77
2022/11/19 10:02:52;;;;;;;0.50;0.10;;;3.80;99.90;;;;;;6215963;23;20420;-78
2022/11/19 10:05:30;;;;;;;0.50;0.10;;;3.80;99.90;;;;;;6215703;23;20408;-79
2022/11/19 10:08:10;;;;;;;0.50;0.10;;;3.80;99.90;;;;;;6214813;23;20403;-76
2022/11/19 10:10:42;;;;;;;1.83;0.83;;;3.90;99.90;;;;;;6215275;23;20410;-78
2022/11/19 10:13:22;;;;;;;0.50;0.20;;;4.00;99.90;;;;;;6214576;23;20454;-77
2022/11/19 10:16:01;;;;;;;0.50;0.10;;;3.90;99.90;;;;;;6211132;23;20395;-76
2022/11/19 10:18:40;;;;;;;0.50;0.10;;;3.90;99.90;;;;;;6215244;23;20401;-77
2022/11/19 10:21:14;;;;;;;0.50;0.10;;;3.90;99.90;;;;;;6217643;23;20426;-80
2022/11/19 10:23:49;;;;;;;0.83;0.40;;;3.90;99.90;;;;;;6216773;23;20400;-77
2022/11/19 10:26:19;;;;;;;0.93;0.93;;;3.90;99.90;;;;;;6215148;23;20395;-79
2022/11/19 10:28:54;;;;;;;0.50;0.10;;;3.90;99.90;;;;;;6217760;23;20400;-77
2022/11/19 10:31:32;;;;;;;0.50;0.10;;;3.90;99.90;;;;;;6216354;23;20409;-77
2022/11/19 10:34:10;;;;;;;0.60;0.50;;;3.90;99.90;;;;;;6221757;23;20375;-77
2022/11/19 10:36:42;;;;;;;0.50;0.10;;;4.00;99.90;;;;;;6222262;23;20399;-76
2022/11/19 10:39:18;;;;;;;0.50;0.10;;;4.10;99.90;;;;;;6221729;23;20411;-78
2022/11/19 10:41:50;;;;;;;0.50;0.20;;;4.10;99.90;;;;;;6220426;23;20942;-77
2022/11/19 10:44:39;;;;;;;0.50;0.10;;;4.10;99.90;;;;;;6223931;23;20380;-79
2022/11/19 10:47:12;;;;;;;2.33;1.73;;;4.10;99.90;;;;;;6226046;23;20403;-77
2022/11/19 10:49:43;;;;;;;0.50;0.10;;;4.10;99.90;;;;;;6224289;23;20406;-78
2022/11/19 10:52:26;;;;;;;0.50;0.10;;;4.00;99.90;;;;;;6219007;23;20824;-77
2022/11/19 10:54:59;;;;;;;0.50;0.10;;;4.00;99.90;;;;;;6220623;23;20484;-77
2022/11/19 10:57:31;;;;;;;0.50;0.10;;;4.00;99.90;;;;;;6216649;23;20426;-74
2022/11/19 11:00:01;;;;;;;3.40;2.30;;;4.10;99.90;;;;;;6213248;23;20414;-79
2022/11/19 11:02:37;;;;;;;1.00;0.93;;;4.10;99.90;;;;;;6218302;23;20795;-78
2022/11/19 11:05:10;;;;;;;0.50;0.10;;;4.10;99.90;;;;;;6217638;23;20402;-78
2022/11/19 11:07:53;;;;;;;0.70;0.70;;;4.10;99.90;;;;;;6220802;23;20502;-79
2022/11/19 11:10:34;;;;;;;0.77;0.77;;;4.20;99.90;;;;;;6220708;23;20407;-77
2022/11/19 11:16:07;;;;;;;0.50;0.10;;;4.10;99.90;;;;;;6219229;23;20779;-79
2022/11/19 11:18:39;;;;;;;0.70;0.70;;;4.00;99.90;;;;;;6239358;23;20403;-80
2022/11/19 11:21:12;;;;;;;0.70;0.37;;;4.00;99.90;;;;;;6236468;23;20406;-79
2022/11/19 11:23:50;;;;;;;0.80;0.30;;;4.00;99.90;;;;;;6219199;23;20431;-77
2022/11/19 11:26:22;;;;;;;0.60;0.30;;;4.10;99.90;;;;;;6218950;23;20403;-78
2022/11/19 11:28:56;;;;;;;0.50;0.10;;;4.10;99.90;;;;;;6218782;23;20902;-77
2022/11/19 11:31:39;;;;;;;1.00;0.70;;;4.10;99.90;;;;;;6216715;23;20394;-78
2022/11/19 11:34:14;;;;;;;0.50;0.20;;;4.00;99.90;;;;;;6230119;23;21001;-79
2022/11/19 11:36:44;;;;;;;1.40;1.30;;;4.00;99.90;;;;;;6225360;23;20387;-78
2022/11/19 11:39:26;;;;;;;0.50;0.20;;;4.10;99.90;;;;;;6218820;23;20403;-78
2022/11/19 11:41:54;;;;;;;0.90;0.63;;;4.10;99.90;;;;;;6218132;23;20435;-79
2022/11/19 11:44:35;;;;;;;0.50;0.10;;;4.10;99.90;;;;;;6222063;23;20388;-78
2022/11/19 11:47:10;;;;;;;0.50;0.20;;;4.10;99.90;;;;;;6217723;23;20400;-78
2022/11/19 11:49:40;;;;;;;0.50;0.10;;;4.10;99.90;;;;;;6217144;23;20887;-78
2022/11/19 11:52:21;;;;;;;0.50;0.20;;;4.10;99.90;;;;;;6217598;23;20712;-78
2022/11/19 11:54:58;;;;;;;0.50;0.10;;;4.10;99.90;;;;;;6218264;23;20391;-80
2022/11/19 11:59:55;;;;;;;0.50;0.10;;;;;;;;;;6213731;23;20938;-74
2022/11/19 12:02:28;;;;;;;0.50;0.10;;;4.30;99.90;;;;;;6213635;23;20395;-74
2022/11/19 12:05:00;;;;;;;0.50;0.10;;;4.30;99.90;;;;;;6215357;23;20847;-71
2022/11/19 12:08:02;;;;;;;3.67;1.20;;;4.20;99.90;;;;;;6215419;23;20491;-71
2022/11/19 12:10:39;;;;;;;1.57;1.40;;;4.20;99.90;;;;;;6192593;23;20411;-72
2022/11/19 12:13:43;;;;;;;0.60;0.57;;;4.10;99.90;;;;;;6215165;23;20469;-73
2022/11/19 12:16:19;;;;;;;1.70;0.80;;;4.10;99.90;;;;;;6214807;23;20387;-73
2022/11/19 12:18:56;;;;;;;0.50;0.10;;;4.10;99.90;;;;;;6214523;23;20802;-72
2022/11/19 12:21:36;;;;;;;7.60;2.57;;;4.00;99.90;;;;;;6214605;23;20387;-72
2022/11/19 12:24:27;;;;;;;0.97;0.50;;;4.10;99.90;;;;;;6214509;23;20399;-73
2022/11/19 12:27:09;;;;;;;0.50;0.20;;;4.10;99.90;;;;;;6213093;23;20446;-73
2022/11/19 12:29:45;;;;;;;0.63;0.47;;;4.10;99.90;;;;;;6214389;23;20446;-74
2022/11/19 12:32:26;;;;;;;0.50;0.40;;;4.20;99.90;;;;;;6215714;23;20390;-72
2022/11/19 12:35:11;;;;;;;2.77;1.80;;;4.20;99.90;;;;;;6215544;23;20494;-71
2022/11/19 12:37:57;;;;;;;3.13;2.83;;;4.20;99.90;;;;;;6214805;23;20423;-74
2022/11/19 12:40:39;;;;;;;0.50;0.20;;;4.20;99.90;;;;;;6212371;23;20398;-73
2022/11/19 12:43:20;;;;;;;1.63;1.23;;;4.20;99.90;;;;;;6212508;23;20403;-72
2022/11/19 12:45:57;;;;;;;16.27;14.97;;;4.30;99.90;;;;;;6210293;23;20407;-72
2022/11/19 12:48:41;;;;;;;1.07;0.97;;;4.40;99.90;;;;;;6213103;23;20419;-73
2022/11/19 12:51:20;;;;;;;0.50;0.10;;;4.40;99.90;;;;;;6210617;23;20402;-73
2022/11/19 12:54:05;;;;;;;0.60;0.40;;;4.50;99.90;;;;;;6212641;23;20439;-71
2022/11/19 12:56:45;;;;;;;7.50;0.97;;;4.50;99.90;;;;;;6212074;23;20938;-72
2022/11/19 12:59:27;;;;;;;0.77;0.77;;;4.50;99.90;;;;;;6213192;23;20489;-72
2022/11/19 13:01:57;;;;;;;0.50;0.10;;;4.40;99.90;;;;;;6211222;23;20414;-73
2022/11/19 13:04:31;;;;;;;0.50;0.10;;;4.40;99.90;;;;;;6213810;23;20434;-72
2022/11/19 13:07:03;;;;;;;0.60;0.30;;;4.40;99.90;;;;;;6214538;23;20407;-72
2022/11/19 13:09:37;;;;;;;0.50;0.10;;;4.40;99.90;;;;;;6214259;23;20955;-71
2022/11/19 13:12:09;;;;;;;0.50;0.10;;;4.40;99.90;;;;;;6213196;23;20403;-72
2022/11/19 13:14:41;;;;;;;0.60;0.50;;;4.40;99.90;;;;;;6213459;23;20538;-73
2022/11/19 13:17:17;;;;;;;2.20;1.83;;;4.50;99.90;;;;;;6214473;23;20410;-72
2022/11/19 13:19:51;;;;;;;0.50;0.10;;;4.50;99.90;;;;;;6214429;23;20387;-72
2022/11/19 13:22:23;;;;;;;0.50;0.20;;;4.50;99.90;;;;;;6213480;23;20457;-73
2022/11/19 13:24:55;;;;;;;0.50;0.10;;;4.50;99.90;;;;;;6214240;23;20476;-72
2022/11/19 13:27:28;;;;;;;0.80;0.50;;;4.50;99.90;;;;;;6212986;23;20404;-71
2022/11/19 13:30:01;;;;;;;0.50;0.20;;;4.50;99.90;;;;;;6213411;23;20399;-71
2022/11/19 13:32:37;;;;;;;3.40;1.90;;;4.40;99.90;;;;;;6212894;23;20442;-72
2022/11/19 13:35:14;;;;;;;0.70;0.43;;;4.40;99.90;;;;;;6213562;23;20508;-71
2022/11/19 13:37:48;;;;;;;0.50;0.20;;;4.40;99.90;;;;;;6213177;23;20423;-73
2022/11/19 13:40:28;;;;;;;0.50;0.10;;;4.40;99.90;;;;;;6213438;23;20535;-72
2022/11/19 13:46:15;;;;;;;0.50;0.30;;;4.30;99.90;;;;;;6212961;23;20407;-73
2022/11/19 13:48:45;;;;;;;0.50;0.30;;;4.30;99.90;;;;;;6211938;23;20422;-73
2022/11/19 13:51:23;;;;;;;1.47;1.37;;;4.30;99.90;;;;;;6213307;23;20384;-72
2022/11/19 13:53:53;;;;;;;0.50;0.23;;;4.30;99.90;;;;;;6210763;23;20443;-72
2022/11/19 13:56:39;;;;;;;0.70;0.43;;;4.30;99.90;;;;;;6212727;23;20434;-72
2022/11/19 13:59:22;;;;;;;0.60;0.50;;;4.20;99.90;;;;;;6213481;23;20767;-72
2022/11/19 14:02:26;;;;;;;3.80;3.50;;;4.20;99.90;;;;;;6213864;23;20384;-73
2022/11/19 14:05:20;;;;;;;0.70;0.30;;;4.20;99.90;;;;;;6213955;23;20465;-73
2022/11/19 14:08:02;;;;;;;0.50;0.10;;;4.30;99.90;;;;;;6213873;23;20462;-74
2022/11/19 14:10:36;;;;;;;0.50;0.10;;;4.20;99.90;;;;;;6213034;23;20453;-72
2022/11/19 14:13:17;;;;;;;0.60;0.40;;;4.30;99.90;;;;;;6213569;23;20403;-73
2022/11/19 14:27:43;;;;;;;0.50;0.10;;;4.40;99.90;;;;;;6214778;23;20477;-73
2022/11/19 14:30:13;;;;;;;0.50;0.10;;;4.40;99.90;;;;;;6213995;23;20403;-73
2022/11/19 14:32:45;;;;;;;0.63;0.57;;;4.50;99.90;;;;;;6213808;23;20398;-72
2022/11/19 14:35:27;;;;;;;0.50;0.10;;;4.50;99.90;;;;;;6214569;23;20489;-72
2022/11/19 14:37:58;;;;;;;0.70;0.67;;;4.60;99.90;;;;;;6213837;23;20419;-71
2022/11/19 14:40:28;;;;;;;0.50;0.10;;;4.60;99.90;;;;;;6213354;23;20493;-72
2022/11/19 14:46:27;;;;;;;4.40;3.03;;;4.60;99.90;;;;;;6213523;23;20461;-73
2022/11/19 14:49:29;;;;;;;0.50;0.10;;;4.60;99.90;;;;;;6209229;23;20429;-71
2022/11/19 14:51:58;;;;;;;0.50;0.20;;;4.60;99.90;;;;;;6211634;23;20942;-72
2022/11/19 14:54:37;;;;;;;0.50;0.10;;;4.50;99.90;;;;;;6212552;23;20489;-71
2022/11/19 14:57:26;;;;;;;1.07;1.03;;;4.50;99.90;;;;;;6213615;23;20403;-72
2022/11/19 14:59:58;;;;;;;0.50;0.40;;;4.50;99.90;;;;;;6212717;23;20415;-72
2022/11/19 15:02:31;;;;;;;1.23;1.13;;;4.50;99.90;;;;;;6212305;23;20383;-71
2022/11/19 15:05:14;;;;;;;0.50;0.20;;;4.50;99.90;;;;;;6213480;23;20396;-73
2022/11/19 15:07:45;;;;;;;0.50;0.20;;;4.50;99.90;;;;;;6213069;23;20426;-71
2022/11/19 15:10:31;;;;;;;0.50;0.10;;;4.50;99.90;;;;;;6212772;23;20367;-71
2022/11/19 15:13:23;;;;;;;0.50;0.10;;;4.50;99.90;;;;;;6212587;23;20414;-73
2022/11/19 15:15:57;;;;;;;0.50;0.10;;;4.50;99.90;;;;;;6212572;23;21233;-72
2022/11/19 15:19:01;;;;;;;0.50;0.10;;;4.50;99.90;;;;;;6212477;23;20488;-73
2022/11/19 15:22:14;;;;;;;0.50;0.43;;;4.50;99.90;;;;;;6212653;23;20447;-72
2022/11/19 15:25:17;;;;;;;8.33;2.63;;;4.50;99.90;;;;;;6212125;23;20407;-73
2022/11/19 15:28:21;;;;;;;0.50;0.20;;;4.50;99.90;;;;;;6175870;23;20744;-74
2022/11/19 15:31:19;;;;;;;0.60;0.10;;;4.50;99.90;;;;;;6091205;23;20403;-73
2022/11/19 15:34:15;;;;;;;40.80;20.33;;;4.50;99.90;;;;;;6212562;23;20425;-73
2022/11/19 15:36:45;;;;;;;9.80;8.93;;;4.50;99.90;;;;;;6172214;23;21182;-73
2022/11/19 15:39:18;;;;;;;1.57;0.83;;;4.50;99.90;;;;;;6214981;23;20810;-74
2022/11/19 15:42:00;;;;;;;0.50;0.10;;;4.50;99.90;;;;;;6213535;23;20399;-71
2022/11/19 15:44:39;;;;;;;0.50;0.10;;;4.40;99.90;;;;;;6213894;23;20890;-72
2022/11/19 15:47:13;;;;;;;0.50;0.10;;;4.40;99.90;;;;;;6215166;23;20910;-73
2022/11/19 15:49:42;;;;;;;0.50;0.10;;;4.40;99.90;;;;;;6215656;23;20425;-73
2022/11/19 15:52:21;;;;;;;1.90;0.70;;;4.40;99.90;;;;;;6215543;23;20400;-73
2022/11/19 15:54:50;;;;;;;0.50;0.10;;;4.40;99.90;;;;;;6215806;23;20442;-74
2022/11/19 15:57:23;;;;;;;0.50;0.30;;;4.40;99.90;;;;;;6215258;23;20412;-73
2022/11/19 15:59:56;;;;;;;0.50;0.10;;;4.40;99.90;;;;;;6215323;23;20442;-73
2022/11/19 16:02:32;;;;;;;0.50;0.10;;;4.40;99.90;;;;;;6215869;23;20465;-74
2022/11/19 16:05:00;;;;;;;2.10;1.53;;;4.40;99.90;;;;;;6215552;23;20420;-73
2022/11/19 16:07:30;;;;;;;0.50;0.20;;;4.30;99.90;;;;;;6215896;23;20701;-73
2022/11/19 16:10:00;;;;;;;0.50;0.10;;;4.30;99.90;;;;;;6215202;23;20403;-73
2022/11/19 16:18:13;;;;;;;1.30;1.10;;;4.20;99.90;;;;;;6214719;23;20423;-71
2022/11/19 16:20:44;;;;;;;0.50;0.10;;;4.10;99.90;;;;;;6215525;23;20702;-72
2022/11/19 16:23:17;;;;;;;0.50;0.10;;;4.10;99.90;;;;;;6214872;23;20403;-73
2022/11/19 16:25:48;;;;;;;0.50;0.10;;;4.10;99.90;;;;;;6214688;23;20380;-73
2022/11/19 16:28:18;;;;;;;0.50;0.20;;;4.20;99.90;;;;;;6214861;23;20473;-71
2022/11/19 16:30:49;;;;;;;0.50;0.10;;;4.20;99.90;;;;;;6214774;23;20410;-71
2022/11/19 16:33:19;;;;;;;0.50;0.17;;;4.20;99.90;;;;;;6214596;23;20792;-71
2022/11/19 16:35:48;;;;;;;0.50;0.10;;;4.20;99.90;;;;;;6215239;23;20435;-72
2022/11/19 16:38:24;;;;;;;0.50;0.10;;;4.10;99.90;;;;;;6215358;23;20454;-72
2022/11/19 16:43:43;;;;;;;1.53;0.83;;;4.10;99.90;;;;;;6216851;23;20380;-72
2022/11/19 16:46:14;;;;;;;0.50;0.10;;;4.10;99.90;;;;;;6215193;23;20403;-71
2022/11/19 16:49:01;;;;;;;0.50;0.13;;;4.00;99.90;;;;;;6214900;23;20427;-71
2022/11/19 16:51:35;;;;;;;0.50;0.10;;;4.00;99.90;;;;;;6215474;23;20375;-70
2022/11/19 16:54:04;;;;;;;0.70;0.30;;;4.00;99.90;;;;;;6215913;23;20728;-71
2022/11/19 16:56:38;;;;;;;1.13;0.60;;;3.90;99.90;;;;;;6214959;23;20493;-72
2022/11/19 16:59:06;;;;;;;0.50;0.10;;;3.90;97.00;;;;;;6214293;23;20430;-71
2022/11/19 17:01:35;;;;;;;0.50;0.10;;;3.90;97.10;;;;;;6214829;23;20457;-72
2022/11/19 17:04:06;;;;;;;0.60;0.43;;;3.90;99.90;;;;;;6214597;23;20415;-71
2022/11/19 17:06:37;;;;;;;0.50;0.10;;;3.90;99.90;;;;;;6214853;23;20399;-71
2022/11/19 17:09:06;;;;;;;0.90;0.63;;;3.80;97.90;;;;;;6214630;23;20414;-72
2022/11/19 17:14:46;;;;;;;0.50;0.20;;;3.80;99.90;;;;;;6214719;23;20398;-72
2022/11/19 17:17:37;;;;;;;0.50;0.30;;;3.80;99.40;;;;;;6214987;23;20462;-71
2022/11/19 17:20:59;;;;;;;0.50;0.10;;;3.80;99.90;;;;;;6214875;23;20471;-72
2022/11/19 17:23:29;;;;;;;0.50;0.30;;;3.90;99.90;;;;;;6214595;23;20419;-72
2022/11/19 17:25:59;;;;;;;0.50;0.10;;;3.90;99.90;;;;;;6214466;23;20380;-72
2022/11/19 17:28:34;;;;;;;0.77;0.30;;;3.90;99.90;;;;;;6214256;23;20419;-72
2022/11/19 17:31:06;;;;;;;0.50;0.10;;;3.90;99.90;;;;;;6214562;23;20383;-72
2022/11/19 17:33:35;;;;;;;0.50;0.10;;;3.90;99.90;;;;;;6214156;23;20411;-71
2022/11/19 17:36:04;;;;;;;0.50;0.20;;;;;;;;;;6214069;23;20969;-72
2022/11/19 17:38:33;;;;;;;0.50;0.30;;;3.80;98.10;;;;;;6214371;23;20430;-73
2022/11/19 17:41:03;;;;;;;0.50;0.20;;;3.80;99.90;;;;;;6214940;23;20429;-71
2022/11/19 17:46:21;;;;;;;0.70;0.30;;;3.80;99.60;;;;;;6215213;23;20792;-71
2022/11/19 17:48:50;;;;;;;0.50;0.20;;;3.70;96.80;;;;;;6215211;23;20434;-72
2022/11/19 17:51:20;;;;;;;0.77;0.40;;;3.70;99.80;;;;;;6214982;23;20408;-71
2022/11/19 17:53:50;;;;;;;0.50;0.17;;;3.70;99.60;;;;;;6214410;23;20405;-70
2022/11/19 17:56:20;;;;;;;0.50;0.10;;;3.70;99.60;;;;;;6215036;23;20439;-71
2022/11/19 17:58:50;;;;;;;0.50;0.10;;;;;;;;;;6215776;23;20509;-79
2022/11/19 18:01:18;;;;;;;0.50;0.10;;;3.70;97.70;;;;;;6225389;23;20490;-80
2022/11/19 18:03:46;;;;;;;0.50;0.10;;;3.70;97.50;;;;;;6227196;23;20411;-79
2022/11/19 18:06:16;;;;;;;0.50;0.10;;;3.80;97.80;;;;;;6221262;23;20411;-78
2022/11/19 18:08:45;;;;;;;1.80;0.67;;;3.80;96.10;;;;;;6222976;23;20430;-79
2022/11/19 18:11:16;;;;;;;0.60;0.30;;;3.70;95.50;;;;;;6225942;23;20390;-79
2022/11/19 18:13:45;;;;;;;0.80;0.70;;;3.80;98.60;;;;;;6227846;23;20395;-79
2022/11/19 18:16:16;;;;;;;3.80;2.27;;;3.70;96.60;;;;;;6227164;23;20442;-80
2022/11/19 18:18:44;;;;;;;0.50;0.20;;;3.60;93.40;;;;;;6224620;23;20424;-79
2022/11/19 18:21:13;;;;;;;7.13;1.07;;;3.60;96.40;;;;;;6223591;23;20403;-79